Skelton, AK

7:59 PM AKDT on October 24, 2014 (GMT -0800)
Eureka | Change Station
CLOSE
Current Station
Airport
Location: Eureka,
Elevation: 3287 ft
Nearby Weather Stations

Elev 3287 ft 61.93 °N, 147.17 °W | Updated 3 minutes ago

Overcast
Overcast
19 °F
Feels Like 19 °F
N
0
Wind Variable Wind from North

Today
High -- | Low -- °F
--% Chance of Precip.
Yesterday
High -- | Low -- °F
Precip. -- in
8:58 AM 6:06 PM
New Moon, 2% visible
Pressure 29.74 in
Visibility 10.0 miles
Clouds Few 3300 ft
Mostly Cloudy 6000 ft
Overcast 9000 ft
Dew Point 18 °F
Humidity 93%
Rainfall 0.00 in
Snow Depth Not available.
UV 0 out of 12
Pollen Not available.
Air Quality Not available.
Flu Activity Local Activity
METAR PAZK 250356Z AUTO 00000KT 10SM FEW033 BKN060 OVC090 M07/M08 A2974 RMK AO1

More Conditions Fewer Conditions

Pressure 29.74 in
Visibility 10.0 miles
Clouds Few 3300 ft
Mostly Cloudy 6000 ft
Overcast 9000 ft
Dew Point 18 °F
Humidity 93%
Rainfall 0.00 in
Snow Depth Not available.
UV 0 out of 12
Pollen Not available.
Air Quality Not available.
Flu Activity Local Activity
METAR PAZK 250356Z AUTO 00000KT 10SM FEW033 BKN060 OVC090 M07/M08 A2974 RMK AO1

More Conditions Fewer Conditions

10-Day Weather Forecast

Almanac

Astronomy

Oct. 24, 2014 Rise Set
Actual Time 8:58 AM AKDT 6:06 PM AKDT
Civil Twilight 8:11 AM AKDT 6:52 PM AKDT
Nautical Twilight 7:19 AM AKDT 7:44 PM AKDT
Astronomical Twilight 6:28 AM AKDT 8:35 PM AKDT
Moon 10:00 AM AKDT (10/24) 6:35 PM AKDT (10/24)
Length of Visible Light 10h 41m
Length of Day
9h 08m
Tomorrow will be 5m 48s shorter.
New Moon, 2% of the Moon is Illuminated
Today
New Moon
Oct 30
First Quarter
Nov 6
Full
Nov 14
Last Quarter
Nov 22
New

Today's Extremes

State Highs State Lows

Community

WunderPhotos

Upload Photos

1,764,772 photos uploaded!

Nearby

Snow Depth

Station Depth Elevation
Moraine 0 in 2100 ft
Upper Tsaina River 10 in 1750 ft
Susitna Valley High 0 in 375 ft
Indian Pass 7 in 2300 ft
Point Mackenzie 1 in 200 ft

Earthquake Activity

City Distance Mag. Time & Date
No recent earthquake activity has been reported nearby.
Minimum magnitude displayed is 2.5.

Coastal Water Temperatures

Place Temperature
No Stations Reporting

Nearby Weather Stations